Time;durP1;ratioP1;P1;durP2;ratioP2;P2;SDS_P1;SDS_P2;PMS_P1;PMS_P2;Temp;Humidity;BMP_temperature;BMP_pressure;BME280_temperature;BME280_humidity;BME280_pressure;Samples;Min_cycle;Max_cycle;Signal;HPM_P1;HPM_P2
2021/12/21 05:33:50;;;;;;;3.80;0.50;;;0.00;99.90;;;;;;4798515;29;20063;-83
2021/12/21 05:36:22;;;;;;;1.83;0.47;;;0.10;99.90;;;;;;4794440;29;20065;-86
2021/12/21 05:38:58;;;;;;;3.93;1.80;;;0.10;99.90;;;;;;4797035;29;20058;-85
2021/12/21 05:41:40;;;;;;;1.25;0.43;;;0.20;99.90;;;;;;4822744;29;20056;-85
2021/12/21 05:44:12;;;;;;;3.45;1.10;;;0.20;99.90;;;;;;4817856;29;20054;-83
2021/12/21 05:46:41;;;;;;;1.58;0.65;;;0.30;99.90;;;;;;4843869;29;20085;-83
2021/12/21 05:49:11;;;;;;;3.65;1.10;;;0.20;99.90;;;;;;4847901;29;20054;-81
2021/12/21 05:51:43;;;;;;;2.33;0.70;;;0.30;99.90;;;;;;4815714;29;20095;-82
2021/12/21 05:54:13;;;;;;;7.22;1.40;;;0.30;99.90;;;;;;4857748;29;20042;-82
2021/12/21 05:56:43;;;;;;;3.85;1.30;;;0.30;99.90;;;;;;4820600;29;20082;-82
2021/12/21 05:59:12;;;;;;;8.35;1.45;;;0.30;99.90;;;;;;4833277;29;20060;-78
2021/12/21 06:01:41;;;;;;;4.03;2.15;;;0.30;99.90;;;;;;4833321;29;20117;-80
2021/12/21 06:04:11;;;;;;;2.23;1.33;;;0.40;99.90;;;;;;4833494;29;20433;-80
2021/12/21 06:06:40;;;;;;;6.50;1.25;;;0.40;99.90;;;;;;4817580;29;20052;-79
2021/12/21 06:09:12;;;;;;;1.85;0.88;;;0.50;99.90;;;;;;4835550;29;20041;-83
2021/12/21 06:11:46;;;;;;;4.80;1.48;;;0.50;99.90;;;;;;4825714;29;20065;-84
2021/12/21 06:14:39;;;;;;;7.00;1.02;;;0.50;99.90;;;;;;4833897;29;20069;-82
2021/12/21 06:37:37;;;;;;;3.40;1.60;;;0.50;99.90;;;;;;5925603;23;20245;31
2021/12/21 10:44:18;;;;;;;4.30;1.33;;;2.70;99.90;;;;;;5360287;23;20066;-77
2021/12/21 11:02:56;;;;;;;3.80;1.20;;;3.20;99.90;;;;;;4453820;23;20057;-79
2021/12/21 11:05:30;;;;;;;3.90;1.43;;;3.20;99.90;;;;;;4863428;29;20706;-78
2021/12/21 11:08:04;;;;;;;3.90;1.13;;;3.30;99.90;;;;;;4866166;29;20056;-80
2021/12/21 11:19:53;;;;;;;3.10;0.93;;;3.60;99.90;;;;;;5500625;23;20155;-81
2021/12/21 11:22:39;;;;;;;3.00;1.02;;;3.70;99.90;;;;;;4837639;29;20110;-80
2021/12/21 14:11:14;;;;;;;1.67;0.70;;;4.70;98.40;;;;;;4788848;29;20116;-80
2021/12/21 14:26:55;;;;;;;2.53;1.03;;;4.40;98.00;;;;;;5078477;23;20417;-80
2021/12/21 15:09:42;;;;;;;5.53;0.80;;;4.10;98.10;;;;;;5194216;24;20067;-85
2021/12/21 16:29:07;;;;;;;2.80;1.67;;;3.60;99.90;;;;;;6238768;23;20020;-83
2021/12/21 16:45:34;;;;;;;2.88;1.55;;;3.70;99.90;;;;;;6245598;23;20020;-84
2021/12/21 16:48:28;;;;;;;3.58;1.25;;;3.70;99.90;;;;;;6175080;23;20154;-77
2021/12/21 16:51:30;;;;;;;2.88;1.08;;;3.60;99.90;;;;;;6245137;23;20008;-83
2021/12/21 16:54:00;;;;;;;10.05;2.20;;;3.60;99.90;;;;;;6205673;23;20071;-79
2021/12/21 16:56:30;;;;;;;5.40;1.87;;;3.60;99.90;;;;;;6229372;23;20019;-79
2021/12/21 16:59:01;;;;;;;6.18;2.60;;;3.60;99.90;;;;;;6213489;23;20019;-79
2021/12/21 17:01:47;;;;;;;6.85;2.58;;;3.60;99.90;;;;;;6221506;22;20087;-81
2021/12/21 17:33:53;;;;;;;9.07;2.05;;;3.40;99.90;;;;;;6263177;22;20412;-81
2021/12/21 17:36:24;;;;;;;6.68;2.65;;;3.30;99.90;;;;;;6229512;23;20066;-81
2021/12/21 17:38:54;;;;;;;7.78;3.30;;;3.30;99.90;;;;;;6206129;23;20047;-82
2021/12/21 17:41:26;;;;;;;9.23;2.80;;;3.30;99.90;;;;;;6230042;23;20024;-79
2021/12/21 17:44:01;;;;;;;12.38;4.10;;;3.30;99.90;;;;;;6194979;23;20394;-78
2021/12/21 17:46:34;;;;;;;6.85;3.30;;;3.30;99.90;;;;;;6195017;23;20077;-78
2021/12/21 17:49:09;;;;;;;6.15;3.35;;;3.20;99.90;;;;;;6250750;23;20020;-78
2021/12/21 17:51:38;;;;;;;7.00;3.45;;;3.20;99.90;;;;;;6191590;23;20021;-77
2021/12/21 17:54:09;;;;;;;5.67;2.37;;;3.20;99.90;;;;;;6193354;23;20100;-78
2021/12/21 17:56:38;;;;;;;5.32;3.10;;;3.20;99.90;;;;;;6193572;23;20016;-78
2021/12/21 17:59:07;;;;;;;3.90;2.00;;;3.20;99.90;;;;;;6218515;23;20436;-79
2021/12/21 18:01:38;;;;;;;11.13;3.20;;;3.20;99.90;;;;;;6191344;23;20020;-79
2021/12/21 18:07:01;;;;;;;10.07;3.43;;;3.00;99.90;;;;;;6203464;23;20024;-81
2021/12/21 18:09:30;;;;;;;6.88;2.55;;;3.00;99.90;;;;;;6228754;23;20016;-80
2021/12/21 18:11:59;;;;;;;10.48;3.75;;;3.00;99.90;;;;;;6208883;23;20012;-81
2021/12/21 18:14:28;;;;;;;9.85;3.67;;;3.00;99.90;;;;;;6230914;23;20078;-83
2021/12/21 18:16:59;;;;;;;7.57;2.97;;;3.00;99.90;;;;;;6237887;23;20043;-82
2021/12/21 18:22:28;;;;;;;6.93;3.50;;;3.00;99.90;;;;;;6242998;22;20026;-81
2021/12/21 18:24:57;;;;;;;8.27;3.08;;;3.00;99.90;;;;;;6227744;23;20020;-80
2021/12/21 18:27:26;;;;;;;8.18;3.67;;;3.00;99.90;;;;;;6223353;23;20329;-79
2021/12/21 18:29:56;;;;;;;8.52;3.38;;;2.90;99.90;;;;;;6228452;23;20077;-81
2021/12/21 18:32:27;;;;;;;8.30;2.67;;;2.90;99.90;;;;;;6238503;23;20070;-81
2021/12/21 18:35:12;;;;;;;4.93;2.70;;;2.80;99.90;;;;;;6219433;22;20036;-81
2021/12/21 18:37:45;;;;;;;8.20;3.63;;;2.80;99.90;;;;;;6185245;22;20041;-82
2021/12/21 18:40:27;;;;;;;6.82;2.90;;;2.80;99.90;;;;;;6215538;22;20064;-82
2021/12/21 18:43:13;;;;;;;8.05;4.25;;;2.80;99.90;;;;;;6192561;22;20043;-81
2021/12/21 18:45:46;;;;;;;5.70;2.50;;;2.70;99.90;;;;;;6212486;22;20021;-82
2021/12/21 18:48:18;;;;;;;10.10;2.80;;;2.80;99.90;;;;;;6242349;22;20016;-80
2021/12/21 18:58:30;;;;;;;5.85;1.95;;;2.60;99.90;;;;;;6161088;23;20021;-80
2021/12/21 19:07:44;;;;;;;7.53;2.75;;;2.20;99.90;;;;;;6190369;23;20463;-79
2021/12/21 19:10:13;;;;;;;5.78;2.88;;;2.00;99.90;;;;;;6174855;23;20020;-81
2021/12/21 19:13:09;;;;;;;9.27;3.28;;;1.90;99.90;;;;;;6189125;23;20027;-78
2021/12/21 19:15:45;;;;;;;8.00;3.23;;;1.90;99.90;;;;;;6186602;23;20056;-78
2021/12/21 19:18:16;;;;;;;4.07;2.63;;;1.80;99.90;;;;;;6186400;23;20021;-77
2021/12/21 19:20:45;;;;;;;8.18;4.20;;;1.70;99.90;;;;;;6185506;23;20020;-77
2021/12/21 19:23:16;;;;;;;9.48;3.58;;;1.70;99.90;;;;;;6185727;23;20025;-77
2021/12/21 19:25:49;;;;;;;9.98;3.70;;;1.70;99.90;;;;;;6188078;23;20059;-77
2021/12/21 19:28:23;;;;;;;4.87;2.37;;;1.60;99.90;;;;;;6162249;23;20111;-78
2021/12/21 19:30:54;;;;;;;7.55;4.03;;;1.60;99.90;;;;;;6185063;23;20741;-78
2021/12/21 19:33:23;;;;;;;9.07;4.40;;;1.60;99.90;;;;;;6185976;23;20016;-77
2021/12/21 19:35:51;;;;;;;7.20;2.90;;;1.60;99.90;;;;;;6158547;23;20020;-76
2021/12/21 19:38:21;;;;;;;7.20;3.25;;;1.50;99.90;;;;;;6161987;23;20020;-79
2021/12/21 19:40:54;;;;;;;7.57;3.57;;;1.60;99.90;;;;;;6187852;23;20103;-78
2021/12/21 19:43:24;;;;;;;7.60;3.10;;;1.50;99.90;;;;;;6189730;23;20107;-78
2021/12/21 19:45:54;;;;;;;8.90;3.78;;;1.50;99.90;;;;;;6165660;23;20016;-79
2021/12/21 19:48:28;;;;;;;6.55;4.20;;;1.60;99.90;;;;;;6166196;23;20051;-79
2021/12/21 19:51:24;;;;;;;7.70;2.78;;;1.50;99.90;;;;;;6187920;23;20039;-78
2021/12/21 19:53:55;;;;;;;8.60;4.43;;;1.50;99.90;;;;;;6187520;22;20027;-78
2021/12/21 19:56:26;;;;;;;8.00;4.43;;;1.50;99.90;;;;;;6192291;23;20103;-78
2021/12/21 19:58:55;;;;;;;7.13;4.07;;;1.50;99.90;;;;;;6193834;23;20024;-79
2021/12/21 20:01:26;;;;;;;8.85;3.38;;;1.50;99.90;;;;;;6192711;23;20063;-78
2021/12/21 20:03:54;;;;;;;10.88;3.83;;;1.50;99.90;;;;;;6190972;23;20047;-78
2021/12/21 20:06:23;;;;;;;7.97;4.80;;;1.60;99.90;;;;;;6190844;23;20024;-78
2021/12/21 20:08:53;;;;;;;6.47;3.83;;;1.60;99.90;;;;;;6191460;23;20020;-78
2021/12/21 20:11:55;;;;;;;5.72;2.47;;;1.50;99.90;;;;;;6215381;23;20313;-80
2021/12/21 20:14:27;;;;;;;4.68;2.30;;;1.60;99.90;;;;;;6190565;23;20024;-78
2021/12/21 20:17:01;;;;;;;6.50;3.60;;;1.50;99.90;;;;;;6190701;23;20106;-78
2021/12/21 20:19:35;;;;;;;7.93;3.73;;;1.50;99.90;;;;;;6191176;23;20099;-78
2021/12/21 20:22:05;;;;;;;7.25;4.10;;;1.60;99.90;;;;;;6216302;23;20036;-78
2021/12/21 20:24:35;;;;;;;7.95;2.90;;;1.60;99.90;;;;;;6191054;23;20122;-78
2021/12/21 20:27:06;;;;;;;8.98;3.92;;;1.50;99.90;;;;;;6191150;23;20020;-78
2021/12/21 20:29:36;;;;;;;9.32;4.47;;;1.50;99.90;;;;;;6215265;23;20439;-78
2021/12/21 20:32:11;;;;;;;5.63;3.30;;;1.50;99.90;;;;;;6191494;23;20028;-78
2021/12/21 20:34:41;;;;;;;6.93;3.45;;;1.50;99.90;;;;;;6190733;23;20030;-79
2021/12/21 20:37:12;;;;;;;9.70;3.17;;;1.40;99.90;;;;;;6216543;23;20024;-78
2021/12/21 20:39:42;;;;;;;5.45;2.63;;;1.40;99.90;;;;;;6191188;23;20039;-78
2021/12/21 20:42:12;;;;;;;9.70;3.80;;;1.40;99.90;;;;;;6192113;23;20415;-78
2021/12/21 20:44:41;;;;;;;8.27;3.67;;;1.40;99.90;;;;;;6191749;23;20020;-78
2021/12/21 20:47:12;;;;;;;10.93;3.38;;;1.30;99.90;;;;;;6191571;23;20020;-78
2021/12/21 20:49:42;;;;;;;8.27;3.50;;;1.30;99.90;;;;;;6190216;23;20026;-78
2021/12/21 20:52:11;;;;;;;6.70;3.42;;;1.20;99.90;;;;;;6190174;23;20027;-77
2021/12/21 20:54:39;;;;;;;10.57;3.70;;;1.20;99.90;;;;;;6191676;23;20861;-77
2021/12/21 20:57:09;;;;;;;4.77;2.43;;;1.10;99.90;;;;;;6217404;23;20055;-77
2021/12/21 20:59:38;;;;;;;9.95;3.33;;;1.10;99.90;;;;;;6217639;23;20024;-77
2021/12/21 21:02:09;;;;;;;7.00;3.88;;;1.10;99.90;;;;;;6217404;23;20108;-77
2021/12/21 21:04:58;;;;;;;8.90;2.80;;;1.10;99.90;;;;;;6197078;22;20402;-80
2021/12/21 21:07:27;;;;;;;8.52;3.92;;;1.00;99.90;;;;;;6197728;23;20400;-79
2021/12/21 21:09:55;;;;;;;6.37;4.10;;;1.00;99.90;;;;;;6220499;23;20028;-81
2021/12/21 21:12:24;;;;;;;9.57;3.22;;;0.90;99.90;;;;;;6218604;23;20056;-78
2021/12/21 21:14:53;;;;;;;11.35;4.05;;;1.00;99.90;;;;;;6221053;23;20021;-78
2021/12/21 21:17:22;;;;;;;7.22;4.10;;;1.00;99.90;;;;;;6195967;23;20024;-78
2021/12/21 21:19:51;;;;;;;7.75;4.00;;;1.00;99.90;;;;;;6221335;23;20016;-78
2021/12/21 21:22:22;;;;;;;8.03;3.67;;;1.00;99.90;;;;;;6219439;23;20466;-77
2021/12/21 21:24:53;;;;;;;8.68;3.47;;;1.00;99.90;;;;;;6194802;23;20345;-77
2021/12/21 21:27:22;;;;;;;7.57;3.90;;;1.00;99.90;;;;;;6195145;23;20020;-77
2021/12/21 21:29:51;;;;;;;6.35;3.70;;;1.00;99.90;;;;;;6193756;23;20026;-78
2021/12/21 21:32:21;;;;;;;6.88;2.78;;;0.90;99.90;;;;;;6194433;23;20082;-78
2021/12/21 21:34:50;;;;;;;9.33;3.70;;;1.00;99.90;;;;;;6195641;23;20027;-79
2021/12/21 21:37:20;;;;;;;4.43;2.10;;;0.90;99.90;;;;;;6196120;23;20024;-80
2021/12/21 21:39:48;;;;;;;13.77;4.35;;;0.90;99.90;;;;;;6195911;23;20041;-79
2021/12/21 21:42:18;;;;;;;9.45;3.13;;;0.90;99.90;;;;;;6196349;23;20035;-80
2021/12/21 21:44:47;;;;;;;7.93;2.65;;;0.90;99.90;;;;;;6194870;23;20036;-79
2021/12/21 21:47:15;;;;;;;9.83;4.77;;;0.80;99.90;;;;;;6218723;23;20024;-79
2021/12/21 21:49:44;;;;;;;7.10;3.60;;;0.90;99.90;;;;;;6195057;23;20016;-79
2021/12/21 21:52:13;;;;;;;8.73;3.67;;;0.80;99.90;;;;;;6219886;23;20075;-79
2021/12/21 21:54:43;;;;;;;7.10;3.83;;;0.80;99.90;;;;;;6194445;23;20284;-80
2021/12/21 21:57:14;;;;;;;7.25;3.22;;;0.80;99.90;;;;;;6195821;23;20099;-80
2021/12/21 21:59:43;;;;;;;6.07;3.00;;;0.80;99.90;;;;;;6220365;23;20024;-80
2021/12/21 22:02:13;;;;;;;6.68;4.05;;;0.70;99.90;;;;;;6194181;23;20111;-80
2021/12/21 22:04:41;;;;;;;7.75;3.13;;;0.60;99.90;;;;;;6193395;23;20046;-80
2021/12/21 22:07:15;;;;;;;7.07;2.72;;;0.60;99.90;;;;;;6218170;23;20016;-80
2021/12/21 22:09:45;;;;;;;3.60;2.17;;;0.50;99.90;;;;;;6192349;23;20016;-80
2021/12/21 22:12:14;;;;;;;4.63;2.83;;;0.60;99.90;;;;;;6218016;23;20022;-81
2021/12/21 22:14:42;;;;;;;9.52;3.75;;;0.60;99.90;;;;;;6193283;23;20030;-80
2021/12/21 22:17:11;;;;;;;4.90;2.35;;;0.70;99.90;;;;;;6192915;23;20016;-80
2021/12/21 22:19:40;;;;;;;8.50;3.60;;;0.60;99.90;;;;;;6217708;23;20439;-80
2021/12/21 22:25:03;;;;;;;8.90;3.30;;;0.60;99.90;;;;;;6192978;23;20058;-80
2021/12/21 22:27:32;;;;;;;6.97;3.60;;;0.60;99.90;;;;;;6192935;23;20111;-80
2021/12/21 22:30:00;;;;;;;7.70;3.92;;;0.60;99.90;;;;;;6191791;23;20031;-80
2021/12/21 22:32:29;;;;;;;10.02;3.58;;;0.60;99.90;;;;;;6192383;23;20016;-78
2021/12/21 22:34:58;;;;;;;5.88;2.53;;;0.60;99.90;;;;;;6192456;23;20019;-78
2021/12/21 22:37:26;;;;;;;9.43;2.70;;;0.50;99.90;;;;;;6217953;23;20020;-80
2021/12/21 22:39:55;;;;;;;9.80;4.05;;;0.50;99.90;;;;;;6217182;23;20098;-78
2021/12/21 22:42:25;;;;;;;8.57;3.13;;;0.50;99.90;;;;;;6192386;23;20503;-80
2021/12/21 22:44:54;;;;;;;7.30;4.03;;;0.50;99.90;;;;;;6217955;23;20036;-78
2021/12/21 22:47:22;;;;;;;6.18;3.85;;;0.40;99.90;;;;;;6217513;23;20389;-77
2021/12/21 22:49:51;;;;;;;6.53;3.47;;;0.40;99.90;;;;;;6192312;23;20447;-77
2021/12/21 22:52:20;;;;;;;6.03;2.78;;;0.40;99.90;;;;;;6217531;23;20016;-77
2021/12/21 22:54:49;;;;;;;6.15;2.92;;;0.30;99.90;;;;;;6192197;23;20102;-77
2021/12/21 22:57:18;;;;;;;9.75;3.22;;;0.30;99.90;;;;;;6216869;23;20027;-77
2021/12/21 22:59:48;;;;;;;8.70;3.35;;;0.30;99.90;;;;;;6191865;23;20024;-77
2021/12/21 23:02:16;;;;;;;6.13;3.03;;;0.30;99.90;;;;;;6191493;23;20055;-80
2021/12/21 23:04:45;;;;;;;6.65;2.97;;;0.30;99.90;;;;;;6216326;23;20020;-79
2021/12/21 23:07:13;;;;;;;7.13;2.63;;;0.40;99.90;;;;;;6191876;23;20099;-80
2021/12/21 23:10:09;;;;;;;7.10;2.80;;;0.30;99.90;;;;;;6216741;23;20024;-77
2021/12/21 23:12:38;;;;;;;7.85;3.83;;;0.30;99.90;;;;;;6192067;23;20024;-77
2021/12/21 23:15:09;;;;;;;7.00;2.63;;;0.30;99.90;;;;;;6191946;23;20027;-77
2021/12/21 23:17:38;;;;;;;6.43;2.97;;;0.30;99.90;;;;;;6191817;23;20016;-78
2021/12/21 23:20:08;;;;;;;8.80;3.03;;;0.30;99.90;;;;;;6191628;23;20465;-77
2021/12/21 23:22:39;;;;;;;6.13;3.25;;;0.20;99.90;;;;;;6191846;23;20111;-77
2021/12/21 23:25:09;;;;;;;8.63;3.42;;;0.20;99.90;;;;;;6191888;23;20021;-79
2021/12/21 23:27:38;;;;;;;7.40;3.27;;;0.20;99.90;;;;;;6216521;23;20020;-80
2021/12/21 23:30:11;;;;;;;6.18;2.65;;;0.20;99.90;;;;;;6191016;23;20525;-80
2021/12/21 23:32:39;;;;;;;6.60;2.72;;;0.20;99.90;;;;;;6191239;23;20075;-80
2021/12/21 23:35:11;;;;;;;3.53;2.20;;;0.20;99.90;;;;;;6191367;23;20027;-80
2021/12/21 23:37:40;;;;;;;4.00;2.25;;;0.20;99.90;;;;;;6216502;23;20020;-80
2021/12/21 23:40:13;;;;;;;5.70;2.57;;;0.20;99.90;;;;;;6191140;23;20020;-80
2021/12/21 23:42:42;;;;;;;4.07;1.27;;;0.10;99.90;;;;;;6217069;23;20066;-80
2021/12/21 23:45:12;;;;;;;5.35;2.15;;;0.20;99.90;;;;;;6191811;23;20031;-80
2021/12/21 23:50:34;;;;;;;6.85;2.47;;;0.10;99.90;;;;;;6191571;23;20334;-80
2021/12/21 23:53:03;;;;;;;5.10;2.40;;;0.10;99.90;;;;;;6216552;23;20024;-79
2021/12/21 23:55:35;;;;;;;4.65;1.70;;;0.00;99.90;;;;;;6191316;23;20100;-80
2021/12/21 23:58:05;;;;;;;6.22;2.50;;;0.00;99.90;;;;;;6191335;23;20058;-80
